Seattle, WA (98101)

6:11 AM PDT on August 27, 2016 (GMT -0700)
Belltown | | Change Station

Elev 98 ft 47.61 °N, 122.35 °W | Updated 53 seconds ago

Scattered Clouds
Scattered Clouds
61.0 °F
Feels Like 61.0 °F
N
2.0
Wind Variable Wind from ESE

Today
High -- | Low -- °F
--% Chance of Precip.
Yesterday
High -- | Low -- °F
Precip. -- in
Pressure 29.80 in
Visibility 10.0 miles
Clouds Scattered Clouds 20000 ft
Dew Point 55 °F
Humidity 81%
Rainfall 0.00 in
Snow Depth Not available.
6:22 AM 7:58 PM
Waning Crescent, 24% visible
METAR KBFI 271253Z 18008KT 10SM SCT200 18/10 A2980 RMK AO2 SLP089 T01780100 $
Pressure 29.80 in
Visibility 10.0 miles
Clouds Scattered Clouds 20000 ft
Dew Point 55 °F
Humidity 81%
Rainfall 0.00 in
Snow Depth Not available.
6:22 AM 7:58 PM
Waning Crescent, 24% visible
METAR KBFI 271253Z 18008KT 10SM SCT200 18/10 A2980 RMK AO2 SLP089 T01780100 $

10-Day Weather Forecast

Almanac

Astronomy

Aug. 27, 2016 Rise Set
Actual Time
Civil Twilight
Nautical Twilight
Astronomical Twilight
Moon
Length of Visible Light
Length of Day
Tomorrow will be .
, % of the Moon is Illuminated

Today's Extremes

State Highs State Lows

Community

WunderPhotos

Upload Photos

1,935,337 photos uploaded!

WunderBlog® & News

Nearby

Air Quality

  Air Quality AQ Index Pollutant
Not available.

Snow Depth

Station Depth Elevation

Earthquake Activity

City Distance Mag. Time & Date
Minimum magnitude displayed is 2.5.

Coastal Water Temperatures

Place Temperature

Stations

Nearby Weather Stations

Station Location Temp. Windchill Dew Point Humidity Wind Precip. Elev Updated Type
                   

Watches & Warnings

There are currently no watches in effect.